createdAt,value
2019-06-09T00:01:42.998Z,101746.92
2019-06-09T00:04:11.575Z,101749.50
2019-06-09T00:06:41.538Z,101747.89
2019-06-09T00:09:11.217Z,101749.59
2019-06-09T00:11:40.625Z,101745.87
2019-06-09T00:14:11.149Z,101757.34
2019-06-09T00:16:41.587Z,101754.46
2019-06-09T00:19:11.041Z,101757.42
2019-06-09T00:21:40.559Z,101762.17
2019-06-09T00:24:11.067Z,101766.59
2019-06-09T00:26:41.246Z,101767.78
2019-06-09T00:29:11.700Z,101771.00
2019-06-09T00:31:51.829Z,101774.51
2019-06-09T00:34:20.899Z,101778.28
2019-06-09T00:36:50.572Z,101778.40
2019-06-09T00:39:20.216Z,101783.81
2019-06-09T00:41:49.689Z,101776.79
2019-06-09T00:44:22.317Z,101782.29
2019-06-09T00:46:51.675Z,101783.44
2019-06-09T00:49:21.046Z,101771.08
2019-06-09T00:51:50.628Z,101785.12
2019-06-09T00:54:20.228Z,101786.04
2019-06-09T00:56:49.727Z,101789.34
2019-06-09T00:59:20.898Z,101786.37
2019-06-09T01:01:59.559Z,101788.70
2019-06-09T01:04:21.516Z,101787.46
2019-06-09T01:06:50.901Z,101789.78
2019-06-09T01:09:20.643Z,101786.96
2019-06-09T01:11:50.022Z,101793.73
2019-06-09T01:14:20.006Z,101802.08
2019-06-09T01:16:49.663Z,101791.71
2019-06-09T01:19:20.196Z,101797.45
2019-06-09T01:21:49.944Z,101796.68
2019-06-09T01:24:20.402Z,101803.45
2019-06-09T01:26:49.846Z,101801.33
2019-06-09T01:29:20.665Z,101801.92
2019-06-09T01:31:51.121Z,101798.48
2019-06-09T01:34:22.569Z,101816.00
2019-06-09T01:36:51.975Z,101812.15
2019-06-09T01:39:22.750Z,101815.82
2019-06-09T01:41:52.369Z,101809.30
2019-06-09T01:44:22.986Z,101806.41
2019-06-09T01:46:52.780Z,101808.73
2019-06-09T01:49:22.797Z,101810.79
2019-06-09T01:51:52.215Z,101812.38
2019-06-09T01:54:22.637Z,101809.37
2019-06-09T01:56:52.093Z,101810.84
2019-06-09T01:59:23.308Z,101817.72
2019-06-09T02:01:52.902Z,101818.19
2019-06-09T02:04:23.245Z,101816.83
2019-06-09T02:06:52.775Z,101827.56
2019-06-09T02:09:23.801Z,101824.86
2019-06-09T02:11:53.394Z,101823.59
2019-06-09T02:14:24.113Z,101825.56
2019-06-09T02:16:53.867Z,101820.47
2019-06-09T02:19:25.072Z,101820.02
2019-06-09T02:21:54.364Z,101823.89
2019-06-09T02:24:25.505Z,101828.64
2019-06-09T02:26:54.912Z,101836.48
2019-06-09T02:29:25.624Z,101832.35
2019-06-09T02:31:59.492Z,101827.17
2019-06-09T02:34:34.921Z,101836.25
2019-06-09T02:36:57.830Z,101829.80
2019-06-09T02:39:32.745Z,101837.14
2019-06-09T02:41:58.262Z,101837.25
2019-06-09T02:44:35.476Z,101838.22
2019-06-09T02:47:02.284Z,101841.23
2019-06-09T02:49:40.348Z,101850.10
2019-06-09T02:52:03.454Z,101844.70
2019-06-09T02:54:40.850Z,101845.74
2019-06-09T02:57:04.194Z,101849.25
2019-06-09T02:59:41.504Z,101853.03
2019-06-09T03:02:05.470Z,101856.69
2019-06-09T03:04:45.308Z,101849.55
2019-06-09T03:07:06.295Z,101857.08
2019-06-09T03:09:40.894Z,101851.18
2019-06-09T03:12:07.571Z,101853.87
2019-06-09T03:14:42.803Z,101862.26
2019-06-09T03:17:11.557Z,101857.16
2019-06-09T03:19:43.546Z,101857.90
2019-06-09T03:22:12.758Z,101859.36
2019-06-09T03:24:46.062Z,101863.61
2019-06-09T03:27:14.200Z,101867.20
2019-06-09T03:29:47.334Z,101865.04
2019-06-09T03:32:32.696Z,101870.94
2019-06-09T03:37:56.930Z,101879.44
2019-06-09T03:39:48.375Z,101882.83
2019-06-09T03:42:21.673Z,101880.91
2019-06-09T03:44:52.643Z,101887.73
2019-06-09T03:47:26.967Z,101886.38
2019-06-09T03:49:52.321Z,101890.82
2019-06-09T03:52:26.243Z,101897.77
2019-06-09T03:54:53.553Z,101897.77
2019-06-09T03:57:27.138Z,101902.79
2019-06-09T03:59:54.368Z,101911.17
2019-06-09T04:02:28.182Z,101911.06
2019-06-09T04:04:55.142Z,101909.70
2019-06-09T04:07:28.455Z,101914.72
2019-06-09T04:09:55.861Z,101911.94
2019-06-09T04:12:28.744Z,101916.16
2019-06-09T04:14:56.293Z,101917.32
2019-06-09T04:17:26.978Z,101917.86
2019-06-09T04:19:57.324Z,101917.28
2019-06-09T04:22:33.921Z,101928.95
2019-06-09T04:24:58.326Z,101931.70
2019-06-09T04:27:30.653Z,101931.59
2019-06-09T04:30:02.756Z,101930.70
2019-06-09T04:32:37.101Z,101930.70
2019-06-09T04:35:03.834Z,101943.67
2019-06-09T04:37:36.325Z,101945.57
2019-06-09T04:40:07.444Z,101944.30
2019-06-09T04:42:40.834Z,101944.63
2019-06-09T04:45:11.728Z,101950.00
2019-06-09T04:47:41.825Z,101950.07
2019-06-09T04:50:13.202Z,101950.91
2019-06-09T04:52:46.238Z,101956.00
2019-06-09T04:55:13.470Z,101957.30
2019-06-09T04:57:45.590Z,101960.27
2019-06-09T05:00:18.222Z,101957.84
2019-06-09T05:02:47.699Z,101960.83
2019-06-09T05:05:18.459Z,101961.23
2019-06-09T05:07:58.149Z,101964.56
2019-06-09T05:10:22.687Z,101964.82
2019-06-09T05:12:52.831Z,101969.52
2019-06-09T05:15:22.922Z,101962.55
2019-06-09T05:17:53.574Z,101963.19
2019-06-09T05:20:23.469Z,101972.73
2019-06-09T05:22:54.122Z,101969.85
2019-06-09T05:25:23.727Z,101973.50
2019-06-09T05:27:54.439Z,101973.34
2019-06-09T05:30:24.133Z,101959.48
2019-06-09T05:32:53.500Z,101963.53
2019-06-09T05:35:23.410Z,101965.30
2019-06-09T05:37:53.079Z,101970.89
2019-06-09T05:40:22.657Z,101966.00
2019-06-09T05:42:52.217Z,101964.27
2019-06-09T05:45:21.571Z,101969.56
2019-06-09T05:47:51.455Z,101963.53
2019-06-09T05:50:22.136Z,101966.25
2019-06-09T05:52:52.027Z,101960.34
2019-06-09T05:55:21.676Z,101971.38
2019-06-09T05:57:51.217Z,101975.00
2019-06-09T06:00:21.730Z,101968.95
2019-06-09T06:02:52.336Z,101962.43
2019-06-09T06:05:21.813Z,101963.80
2019-06-09T06:07:51.437Z,101973.46
2019-06-09T06:10:21.374Z,101972.77
2019-06-09T06:12:51.712Z,101970.20
2019-06-09T06:15:21.923Z,101972.55
2019-06-09T06:17:51.450Z,101971.55
2019-06-09T06:20:21.822Z,101967.85
2019-06-09T06:22:51.330Z,101967.25
2019-06-09T06:25:23.118Z,101965.63
2019-06-09T06:27:52.273Z,101964.77
2019-06-09T06:30:22.056Z,101965.77
2019-06-09T06:32:51.674Z,101966.13
2019-06-09T06:35:21.412Z,101968.61
2019-06-09T06:37:55.213Z,101967.36
2019-06-09T06:40:21.764Z,101958.70
2019-06-09T06:42:51.890Z,101952.89
2019-06-09T06:45:21.515Z,101958.19
2019-06-09T06:47:50.891Z,101960.02
2019-06-09T06:50:21.245Z,101958.64
2019-06-09T06:52:51.890Z,101963.44
2019-06-09T06:55:21.435Z,101969.02
2019-06-09T06:57:51.313Z,101968.49
2019-06-09T07:00:22.808Z,101965.25
2019-06-09T07:02:52.687Z,101967.50
2019-06-09T07:05:22.603Z,101971.58
2019-06-09T07:08:04.768Z,101968.80
2019-06-09T07:10:23.389Z,101966.88
2019-06-09T07:12:53.243Z,101965.81
2019-06-09T07:15:22.600Z,101969.64
2019-06-09T07:17:54.015Z,101967.01
2019-06-09T07:20:23.342Z,101968.00
2019-06-09T07:22:53.296Z,101974.75
2019-06-09T07:25:23.746Z,101968.67
2019-06-09T07:27:55.514Z,101966.42
2019-06-09T07:30:24.169Z,101965.66
2019-06-09T07:32:56.978Z,101971.07
2019-06-09T07:35:26.439Z,101966.57
2019-06-09T07:38:16.536Z,101963.78
2019-06-09T07:40:27.119Z,101962.98
2019-06-09T07:42:56.624Z,101961.98
2019-06-09T07:45:25.996Z,101961.80
2019-06-09T07:47:56.334Z,101963.38
2019-06-09T07:50:25.913Z,101956.64
2019-06-09T07:52:59.039Z,101956.45
2019-06-09T07:55:26.785Z,101957.73
2019-06-09T07:57:56.142Z,101962.89
2019-06-09T08:00:25.826Z,101958.92
2019-06-09T08:02:55.181Z,101964.96
2019-06-09T08:05:24.849Z,101967.26
2019-06-09T08:07:54.701Z,101968.83
2019-06-09T08:10:24.065Z,101959.94
2019-06-09T08:12:55.548Z,101957.48
2019-06-09T08:15:24.798Z,101959.98
2019-06-09T08:17:55.080Z,101956.38
2019-06-09T08:20:24.511Z,101957.00
2019-06-09T08:22:55.950Z,101953.52
2019-06-09T08:25:25.388Z,101953.08
2019-06-09T08:27:55.167Z,101951.63
2019-06-09T08:30:28.288Z,101951.84
2019-06-09T08:32:57.960Z,101956.53
2019-06-09T08:35:27.385Z,101957.61
2019-06-09T08:38:00.639Z,101969.06
2019-06-09T08:44:16.309Z,101957.86
2019-06-09T08:46:46.242Z,101954.40
2019-06-09T08:55:24.470Z,101948.48
2019-06-09T08:57:55.850Z,101954.52
2019-06-09T09:03:53.223Z,101949.98
2019-06-09T09:06:23.276Z,101951.67
2019-06-09T09:09:09.650Z,101953.17
2019-06-09T09:11:24.308Z,101949.20
2019-06-09T09:13:56.515Z,101954.27
2019-06-09T09:16:25.092Z,101953.84
2019-06-09T09:18:58.729Z,101959.55
2019-06-09T09:21:25.772Z,101956.63
2019-06-09T09:24:36.274Z,101953.42
2019-06-09T09:26:26.473Z,101957.30
2019-06-09T09:28:57.461Z,101944.23
2019-06-09T09:31:27.346Z,101957.83
2019-06-09T09:33:57.001Z,101959.66
2019-06-09T09:36:26.376Z,101963.02
2019-06-09T09:38:57.204Z,101963.41
2019-06-09T09:41:26.568Z,101964.63
2019-06-09T09:43:57.987Z,101965.19
2019-06-09T09:46:28.403Z,101968.67
2019-06-09T09:48:58.101Z,101964.22
2019-06-09T09:55:18.245Z,101962.82
2019-06-09T09:57:48.242Z,101955.25
2019-06-09T10:00:18.207Z,101945.42
2019-06-09T10:02:48.475Z,101945.42
2019-06-09T10:06:32.927Z,101943.55
2019-06-09T10:09:10.988Z,101940.98
2019-06-09T10:11:41.423Z,101934.44
2019-06-09T10:14:14.272Z,101930.75
2019-06-09T10:16:42.442Z,101933.66
2019-06-09T10:19:12.087Z,101930.27
2019-06-09T10:21:41.696Z,101917.23
2019-06-09T10:24:11.216Z,101918.59
2019-06-09T10:26:42.297Z,101909.23
2019-06-09T10:32:31.494Z,101897.66
2019-06-09T10:35:03.722Z,101904.77
2019-06-09T10:37:33.171Z,101906.53
2019-06-09T10:40:16.784Z,101899.47
2019-06-09T10:42:34.372Z,101890.59
2019-06-09T10:45:05.484Z,101892.36
2019-06-09T10:47:35.155Z,101892.42
2019-06-09T10:50:09.116Z,101891.88
2019-06-09T10:52:40.972Z,101895.41
2019-06-09T10:55:09.500Z,101894.06
2019-06-09T10:57:41.603Z,101887.45
2019-06-09T11:00:26.145Z,101882.77
2019-06-09T11:02:43.643Z,101879.17
2019-06-09T11:05:13.629Z,101878.25
2019-06-09T11:07:43.257Z,101867.74
2019-06-09T11:10:23.210Z,101855.12
2019-06-09T11:12:45.455Z,101855.12
2019-06-09T11:15:15.569Z,101855.96
2019-06-09T11:17:45.487Z,101855.96
2019-06-09T11:20:15.290Z,101849.05
2019-06-09T11:22:44.652Z,101850.19
2019-06-09T11:25:18.028Z,101844.14
2019-06-09T11:27:45.453Z,101842.46
2019-06-09T11:30:20.671Z,101834.55
2019-06-09T11:32:46.954Z,101837.98
2019-06-09T11:35:16.651Z,101833.70
2019-06-09T11:37:46.761Z,101823.27
2019-06-09T11:40:29.948Z,101821.59
2019-06-09T11:42:48.461Z,101820.37
2019-06-09T11:45:20.859Z,101816.35
2019-06-09T11:47:51.896Z,101813.30
2019-06-09T11:50:21.903Z,101812.58
2019-06-09T11:52:51.808Z,101808.64
2019-06-09T11:55:23.989Z,101805.50
2019-06-09T11:57:53.571Z,101814.92
2019-06-09T12:00:23.999Z,101811.49
2019-06-09T12:02:54.021Z,101805.69
2019-06-09T12:05:23.951Z,101804.32
2019-06-09T12:07:53.781Z,101803.25
2019-06-09T12:10:23.713Z,101797.57
2019-06-09T12:12:54.108Z,101793.69
2019-06-09T12:15:23.721Z,101786.91
2019-06-09T12:17:54.116Z,101795.08
2019-06-09T12:20:23.454Z,101793.24
2019-06-09T12:22:54.596Z,101789.44
2019-06-09T12:25:24.316Z,101779.28
2019-06-09T12:27:53.682Z,101778.61
2019-06-09T12:30:24.809Z,101780.86
2019-06-09T12:32:55.704Z,101765.73
2019-06-09T12:35:25.074Z,101764.32
2019-06-09T12:37:54.735Z,101760.72
2019-06-09T12:40:24.756Z,101753.05
2019-06-09T12:42:54.393Z,101762.50
2019-06-09T12:45:25.392Z,101764.09
2019-06-09T12:47:54.771Z,101759.53
2019-06-09T12:50:24.438Z,101749.02
2019-06-09T12:52:53.972Z,101749.45
2019-06-09T12:55:23.749Z,101749.98
2019-06-09T12:57:53.435Z,101750.50
2019-06-09T13:00:25.755Z,101737.73
2019-06-09T13:02:54.839Z,101732.49
2019-06-09T13:05:24.549Z,101734.56
2019-06-09T13:07:54.157Z,101731.11
2019-06-09T13:10:23.524Z,101732.02
2019-06-09T13:12:52.894Z,101741.00
2019-06-09T13:15:22.441Z,101735.56
2019-06-09T13:17:51.810Z,101723.73
2019-06-09T13:20:23.734Z,101724.77
2019-06-09T13:22:52.523Z,101704.65
2019-06-09T13:25:22.170Z,101721.14
2019-06-09T13:27:51.788Z,101710.60
2019-06-09T13:30:21.983Z,101705.79
2019-06-09T13:32:51.945Z,101710.83
2019-06-09T13:35:22.267Z,101709.94
2019-06-09T13:37:52.062Z,101708.50
2019-06-09T13:40:21.742Z,101697.39
2019-06-09T13:42:52.501Z,101699.08
2019-06-09T13:45:24.071Z,101693.04
2019-06-09T13:47:53.740Z,101690.64
2019-06-09T13:50:23.099Z,101689.24
2019-06-09T13:52:52.621Z,101681.30
2019-06-09T13:55:22.252Z,101670.31
2019-06-09T13:57:51.759Z,101677.47
2019-06-09T14:00:23.657Z,101669.33
2019-06-09T14:02:53.118Z,101672.21
2019-06-09T14:05:24.966Z,101672.44
2019-06-09T14:07:54.074Z,101670.39
2019-06-09T14:10:23.460Z,101664.86
2019-06-09T14:12:52.818Z,101663.20
2019-06-09T14:19:00.916Z,101654.33
2019-06-09T14:21:31.462Z,101654.16
2019-06-09T14:24:02.316Z,101659.61
2019-06-09T14:26:31.895Z,101655.63
2019-06-09T14:29:02.501Z,101657.92
2019-06-09T14:31:32.110Z,101653.77
2019-06-09T14:34:03.475Z,101650.55
2019-06-09T14:36:32.976Z,101657.84
2019-06-09T14:45:42.847Z,101642.16
2019-06-09T14:48:13.806Z,101646.99
2019-06-09T14:50:43.298Z,101638.53
2019-06-09T14:53:16.293Z,101639.20
2019-06-09T14:59:31.666Z,101640.36
2019-06-09T15:02:02.266Z,101635.58
2019-06-09T15:04:32.892Z,101637.16
2019-06-09T15:07:02.378Z,101626.72
2019-06-09T15:09:31.768Z,101626.70
2019-06-09T15:12:02.346Z,101619.33
2019-06-09T15:20:25.008Z,101613.10
2019-06-09T15:22:54.622Z,101616.37
2019-06-09T15:25:24.011Z,101605.92
2019-06-09T15:27:53.371Z,101595.46
2019-06-09T15:30:26.682Z,101598.67
2019-06-09T15:39:45.672Z,101591.91
2019-06-09T15:42:16.508Z,101588.16
2019-06-09T15:44:46.873Z,101589.41
2019-06-09T15:47:17.541Z,101581.06
2019-06-09T15:49:46.964Z,101576.02
2019-06-09T15:52:18.050Z,101568.33
2019-06-09T15:54:47.431Z,101567.23
2019-06-09T15:57:17.124Z,101568.03
2019-06-09T15:59:46.754Z,101567.52
2019-06-09T16:02:17.324Z,101567.52
2019-06-09T16:04:47.007Z,101574.33
2019-06-09T16:07:20.987Z,101572.76
2019-06-09T16:09:54.038Z,101577.86
2019-06-09T16:12:25.208Z,101577.87
2019-06-09T16:14:54.851Z,101570.27
2019-06-09T16:17:25.706Z,101585.58
2019-06-09T16:19:55.400Z,101584.28
2019-06-09T16:22:26.555Z,101581.23
2019-06-09T16:24:57.151Z,101574.65
2019-06-09T16:27:42.220Z,101574.11
2019-06-09T16:29:58.213Z,101577.45
2019-06-09T16:32:28.330Z,101565.44
2019-06-09T16:35:00.646Z,101564.61
2019-06-09T16:37:31.191Z,101566.00
2019-06-09T16:40:00.993Z,101559.23
2019-06-09T16:42:30.581Z,101558.05
2019-06-09T16:49:16.961Z,101562.66
2019-06-09T16:51:46.337Z,101566.38
2019-06-09T16:54:15.690Z,101566.82
2019-06-09T16:56:45.102Z,101553.14
2019-06-09T16:59:16.035Z,101554.31
2019-06-09T17:01:45.475Z,101548.37
2019-06-09T17:04:15.156Z,101550.36
2019-06-09T17:06:44.521Z,101546.26
2019-06-09T17:09:14.445Z,101552.09
2019-06-09T17:11:44.116Z,101546.28
2019-06-09T17:14:13.782Z,101536.77
2019-06-09T17:16:44.487Z,101540.62
2019-06-09T17:19:14.409Z,101532.81
2019-06-09T17:21:43.792Z,101538.08
2019-06-09T17:24:13.457Z,101535.24
2019-06-09T17:26:43.164Z,101530.09
2019-06-09T17:29:12.520Z,101526.16
2019-06-09T17:31:42.196Z,101523.02
2019-06-09T17:34:12.794Z,101520.68
2019-06-09T17:36:42.234Z,101515.81
2019-06-09T17:39:12.645Z,101507.64
2019-06-09T17:41:42.423Z,101511.78
2019-06-09T17:44:15.559Z,101508.81
2019-06-09T17:46:44.452Z,101508.81
2019-06-09T17:49:14.147Z,101510.54
2019-06-09T17:51:43.888Z,101505.43
2019-06-09T17:54:14.018Z,101489.95
2019-06-09T17:56:43.596Z,101495.17
2019-06-09T17:59:13.256Z,101498.08
2019-06-09T18:01:42.625Z,101497.25
2019-06-09T18:04:12.314Z,101501.55
2019-06-09T18:06:41.904Z,101487.66
2019-06-09T18:09:11.542Z,101486.50
2019-06-09T18:11:42.183Z,101482.78
2019-06-09T18:14:23.633Z,101480.42
2019-06-09T18:16:43.361Z,101479.76
2019-06-09T18:19:12.720Z,101488.95
2019-06-09T18:21:42.329Z,101479.04
2019-06-09T18:24:12.110Z,101480.42
2019-06-09T18:26:41.554Z,101472.41
2019-06-09T18:29:10.977Z,101477.23
2019-06-09T18:31:42.735Z,101478.81
2019-06-09T18:34:13.709Z,101485.73
2019-06-09T18:39:57.853Z,101484.35
2019-06-09T18:42:28.083Z,101475.91
2019-06-09T18:45:01.206Z,101480.38
2019-06-09T18:47:29.505Z,101469.23
2019-06-09T18:50:01.176Z,101456.48
2019-06-09T18:52:35.574Z,101463.21
2019-06-09T18:55:02.738Z,101457.41
2019-06-09T18:57:33.930Z,101458.98
2019-06-09T19:00:07.243Z,101461.41
2019-06-09T19:02:37.282Z,101458.88
2019-06-09T19:05:07.486Z,101453.73
2019-06-09T19:07:38.469Z,101453.92
2019-06-09T19:10:08.618Z,101456.98
2019-06-09T19:12:37.998Z,101455.11
2019-06-09T19:15:09.972Z,101452.17
2019-06-09T19:17:39.639Z,101454.77
2019-06-09T19:20:11.355Z,101454.04
2019-06-09T19:22:42.422Z,101449.41
2019-06-09T19:25:13.238Z,101450.64
2019-06-09T19:27:44.080Z,101449.27
2019-06-09T19:30:16.364Z,101444.45
2019-06-09T19:32:45.773Z,101455.80
2019-06-09T19:35:15.773Z,101459.08
2019-06-09T19:37:45.863Z,101463.94
2019-06-09T19:40:16.099Z,101458.78
2019-06-09T19:42:45.536Z,101456.56
2019-06-09T19:45:16.756Z,101460.37
2019-06-09T19:47:46.547Z,101458.28
2019-06-09T19:50:17.973Z,101453.52
2019-06-09T19:52:47.461Z,101445.08
2019-06-09T19:55:17.284Z,101443.40
2019-06-09T19:57:48.877Z,101442.56
2019-06-09T20:00:23.048Z,101446.87
2019-06-09T20:02:53.643Z,101437.45
2019-06-09T20:05:31.040Z,101442.94
2019-06-09T20:08:01.755Z,101443.12
2019-06-09T20:10:39.880Z,101446.73
2019-06-09T20:13:11.889Z,101443.14
2019-06-09T20:15:44.374Z,101441.98
2019-06-09T20:18:15.664Z,101440.80
2019-06-09T20:20:46.378Z,101438.91
2019-06-09T20:23:15.519Z,101428.30
2019-06-09T20:25:47.096Z,101426.75
2019-06-09T20:28:16.372Z,101423.69
2019-06-09T20:30:46.512Z,101418.05
2019-06-09T20:33:17.267Z,101418.89
2019-06-09T20:35:52.531Z,101420.08
2019-06-09T20:38:17.812Z,101403.30
2019-06-09T20:40:54.789Z,101403.30
2019-06-09T20:43:19.332Z,101416.67
2019-06-09T20:46:02.097Z,101414.42
2019-06-09T20:48:20.918Z,101408.11
2019-06-09T20:50:54.272Z,101412.20
2019-06-09T20:53:22.655Z,101411.02
2019-06-09T20:56:00.514Z,101398.49
2019-06-09T20:58:24.564Z,101404.66
2019-06-09T21:00:56.765Z,101401.41
2019-06-09T21:03:25.083Z,101395.73
2019-06-09T21:05:55.406Z,101408.41
2019-06-09T21:08:24.728Z,101405.78
2019-06-09T21:10:55.685Z,101391.57
2019-06-09T21:13:25.364Z,101396.53
2019-06-09T21:16:17.101Z,101394.99
2019-06-09T21:18:26.299Z,101394.81
2019-06-09T21:20:55.950Z,101391.57
2019-06-09T21:23:25.604Z,101390.38
2019-06-09T21:25:56.013Z,101390.92
2019-06-09T21:28:25.606Z,101386.12
2019-06-09T21:30:58.545Z,101390.91
2019-06-09T21:33:27.267Z,101384.22
2019-06-09T21:35:56.719Z,101379.56
2019-06-09T21:38:28.727Z,101387.58
2019-06-09T21:40:57.131Z,101388.27
2019-06-09T21:43:26.641Z,101394.23
2019-06-09T21:45:57.603Z,101397.64
2019-06-09T21:48:27.053Z,101391.65
2019-06-09T21:50:56.862Z,101376.42
2019-06-09T21:53:26.178Z,101375.20
2019-06-09T21:55:56.816Z,101376.22
2019-06-09T21:58:26.484Z,101377.41
2019-06-09T22:00:58.997Z,101367.31
2019-06-09T22:03:27.214Z,101372.75
2019-06-09T22:05:58.243Z,101370.69
2019-06-09T22:08:27.745Z,101373.95
2019-06-09T22:10:57.106Z,101377.98
2019-06-09T22:13:26.704Z,101372.16
2019-06-09T22:15:57.863Z,101376.23
2019-06-09T22:18:27.515Z,101371.77
2019-06-09T22:20:58.063Z,101370.05
2019-06-09T22:23:27.769Z,101361.84
2019-06-09T22:25:58.142Z,101363.22
2019-06-09T22:28:27.732Z,101373.09
2019-06-09T22:30:58.290Z,101376.81
2019-06-09T22:33:31.248Z,101367.23
2019-06-09T22:36:00.805Z,101360.22
2019-06-09T22:38:31.022Z,101364.32
2019-06-09T22:41:02.443Z,101352.33
2019-06-09T22:43:31.951Z,101351.94
2019-06-09T22:46:01.442Z,101355.33
2019-06-09T22:48:31.596Z,101352.59
2019-06-09T22:51:04.108Z,101350.03
2019-06-09T22:53:32.535Z,101348.31
2019-06-09T22:56:03.554Z,101331.59
2019-06-09T22:58:33.885Z,101324.98
2019-06-09T23:01:03.458Z,101320.92
2019-06-09T23:03:32.926Z,101320.25
2019-06-09T23:06:05.466Z,101321.63
2019-06-09T23:08:34.569Z,101313.77
2019-06-09T23:11:04.183Z,101310.82
2019-06-09T23:13:33.825Z,101301.52
2019-06-09T23:16:03.229Z,101301.62
2019-06-09T23:18:32.920Z,101301.00
2019-06-09T23:21:03.903Z,101296.77
2019-06-09T23:23:33.580Z,101297.71
2019-06-09T23:26:04.374Z,101294.56
2019-06-09T23:28:34.125Z,101296.39
2019-06-09T23:31:04.786Z,101297.00
2019-06-09T23:33:34.189Z,101295.09
2019-06-09T23:36:03.851Z,101296.27
2019-06-09T23:38:33.252Z,101292.65
2019-06-09T23:41:05.468Z,101297.05
2019-06-09T23:43:34.315Z,101291.57
2019-06-09T23:46:06.404Z,101288.47
2019-06-09T23:48:35.039Z,101285.69
2019-06-09T23:51:07.713Z,101278.97
2019-06-09T23:53:35.795Z,101271.94
2019-06-09T23:56:06.427Z,101263.13
2019-06-09T23:58:35.932Z,101266.86
